Time;durP1;ratioP1;P1;durP2;ratioP2;P2;SDS_P1;SDS_P2;PMS_P1;PMS_P2;Temp;Humidity;BMP_temperature;BMP_pressure;BME280_temperature;BME280_humidity;BME280_pressure;Samples;Min_cycle;Max_cycle;Signal;HPM_P1;HPM_P2
2023/10/31 00:00:03;;;;;;;0.50;0.40;;;;;;;11.06;100.00;95343.31;5112210;28;20189;-57
2023/10/31 00:02:30;;;;;;;0.30;0.30;;;;;;;11.01;100.00;95335.13;5112604;28;20515;-57
2023/10/31 00:04:57;;;;;;;0.40;0.40;;;;;;;11.03;100.00;95333.09;5113047;28;20283;-56
2023/10/31 00:07:24;;;;;;;0.60;0.37;;;;;;;11.07;100.00;95326.47;5112808;28;20205;-57
2023/10/31 00:09:52;;;;;;;0.30;0.30;;;;;;;11.10;100.00;95318.16;5112950;28;20216;-56
2023/10/31 00:12:19;;;;;;;0.40;0.40;;;;;;;11.05;100.00;95325.84;5113111;28;20205;-56
2023/10/31 00:14:45;;;;;;;2.17;0.60;;;;;;;11.02;100.00;95329.63;5112524;28;20303;-56
2023/10/31 00:17:12;;;;;;;0.30;0.30;;;;;;;10.99;100.00;95320.22;5112236;28;20216;-56
2023/10/31 00:19:38;;;;;;;0.40;0.40;;;;;;;10.96;100.00;95314.47;5112773;28;20197;-57
2023/10/31 00:22:06;;;;;;;0.97;0.50;;;;;;;10.93;100.00;95314.84;5112868;28;20209;-55
2023/10/31 00:24:34;;;;;;;0.50;0.50;;;;;;;10.90;100.00;95318.66;5112132;28;20189;-56
2023/10/31 00:27:00;;;;;;;1.00;0.60;;;;;;;10.87;100.00;95332.25;5112206;28;20208;-56
2023/10/31 00:29:27;;;;;;;1.27;0.57;;;;;;;10.88;100.00;95325.94;5112312;28;20197;-56
2023/10/31 00:31:53;;;;;;;0.60;0.60;;;;;;;10.88;100.00;95330.41;5111622;28;20216;-56
2023/10/31 00:34:21;;;;;;;1.40;0.40;;;;;;;10.87;100.00;95326.97;5111649;28;20225;-56
2023/10/31 00:36:48;;;;;;;0.80;0.80;;;;;;;10.91;100.00;95330.06;5112325;28;20217;-56
2023/10/31 00:39:16;;;;;;;0.60;0.60;;;;;;;10.89;100.00;95321.47;5112536;28;20193;-56
2023/10/31 00:41:45;;;;;;;0.63;0.63;;;;;;;10.89;100.00;95327.59;5112066;28;20201;-57
2023/10/31 00:44:13;;;;;;;0.60;0.60;;;;;;;10.86;100.00;95327.94;5111366;28;20507;-57
2023/10/31 00:46:39;;;;;;;1.80;1.07;;;;;;;10.97;100.00;95334.66;5111911;28;20225;-57
2023/10/31 00:49:06;;;;;;;1.10;1.00;;;;;;;10.96;100.00;95338.28;5111843;28;20271;-57
2023/10/31 00:51:33;;;;;;;1.00;0.90;;;;;;;10.95;100.00;95333.97;5111401;28;20197;-56
2023/10/31 00:53:59;;;;;;;0.80;0.80;;;;;;;10.89;100.00;95348.75;5111257;28;20687;-56
2023/10/31 00:56:27;;;;;;;1.00;1.00;;;;;;;10.87;100.00;95364.00;5111927;28;20197;-56
2023/10/31 00:58:54;;;;;;;2.10;1.00;;;;;;;10.90;100.00;95376.84;5111099;28;20202;-57
2023/10/31 01:01:20;;;;;;;0.90;0.90;;;;;;;10.93;100.00;95388.91;5111861;28;20201;-57
2023/10/31 01:03:47;;;;;;;1.00;1.00;;;;;;;10.92;100.00;95403.94;5111744;28;20678;-57
2023/10/31 01:06:13;;;;;;;1.17;1.07;;;;;;;10.97;100.00;95403.41;5112408;28;20216;-55
2023/10/31 01:08:40;;;;;;;1.30;1.20;;;;;;;10.96;100.00;95401.75;5111776;28;20205;-57
2023/10/31 01:11:08;;;;;;;1.10;1.10;;;;;;;10.95;100.00;95406.22;5122501;28;20193;-59
2023/10/31 01:13:38;;;;;;;0.90;0.90;;;;;;;10.90;100.00;95405.13;5131048;28;20216;-56
2023/10/31 01:16:05;;;;;;;2.50;1.03;;;;;;;10.88;100.00;95394.69;5130122;28;20841;-56
2023/10/31 01:18:32;;;;;;;0.80;0.80;;;;;;;10.89;100.00;95406.09;5133904;28;20201;-57
2023/10/31 01:20:59;;;;;;;1.00;0.90;;;;;;;10.87;100.00;95408.94;5127515;28;20193;-56
2023/10/31 01:23:25;;;;;;;1.03;0.93;;;;;;;10.85;100.00;95415.38;5116091;28;20213;-56
2023/10/31 01:25:51;;;;;;;0.87;0.87;;;;;;;10.77;100.00;95418.91;5111746;28;20197;-56
2023/10/31 01:28:18;;;;;;;1.43;0.83;;;;;;;10.83;100.00;95418.22;5111522;28;20205;-57
2023/10/31 01:30:46;;;;;;;1.17;0.93;;;;;;;10.83;100.00;95426.16;5111675;28;20208;-56
2023/10/31 01:33:13;;;;;;;0.93;0.93;;;;;;;10.80;100.00;95423.84;5110834;28;20221;-56
2023/10/31 01:35:39;;;;;;;0.93;0.93;;;;;;;10.79;100.00;95419.56;5111023;28;20212;-57
2023/10/31 01:38:05;;;;;;;1.60;0.57;;;;;;;10.79;100.00;95416.09;5110407;28;20209;-56
2023/10/31 01:40:32;;;;;;;1.37;0.73;;;;;;;10.72;100.00;95418.59;5092962;28;20204;-56
2023/10/31 01:42:58;;;;;;;0.60;0.60;;;;;;;10.73;100.00;95412.34;5111723;28;20205;-56
2023/10/31 01:45:25;;;;;;;0.70;0.70;;;;;;;10.69;100.00;95411.03;5110271;28;20236;-56
2023/10/31 01:47:53;;;;;;;0.67;0.67;;;;;;;10.66;100.00;95413.19;5111971;28;20220;-55
2023/10/31 01:50:20;;;;;;;1.13;0.70;;;;;;;10.68;100.00;95413.84;5111515;28;20215;-56
2023/10/31 01:52:49;;;;;;;0.70;0.70;;;;;;;10.69;100.00;95412.84;5111203;28;20196;-56
2023/10/31 01:55:16;;;;;;;1.10;1.00;;;;;;;10.60;100.00;95414.69;5110788;28;20598;-56
2023/10/31 01:57:44;;;;;;;0.63;0.63;;;;;;;10.64;100.00;95423.09;5110437;28;20201;-57
2023/10/31 02:00:12;;;;;;;0.70;0.50;;;;;;;10.61;100.00;95426.94;5110321;28;21463;-56
2023/10/31 02:02:41;;;;;;;0.83;0.60;;;;;;;10.55;100.00;95424.97;5110128;28;20648;-55
2023/10/31 02:05:13;;;;;;;0.73;0.73;;;;;;;10.59;100.00;95431.56;5110818;28;20194;-56
2023/10/31 02:07:40;;;;;;;1.27;0.70;;;;;;;10.54;100.00;95444.47;5110735;28;20201;-56
2023/10/31 02:10:07;;;;;;;1.33;0.60;;;;;;;10.51;100.00;95444.81;5111159;28;20204;-56
2023/10/31 02:12:35;;;;;;;1.07;0.63;;;;;;;10.43;100.00;95443.03;5111058;28;20197;-54
2023/10/31 02:15:01;;;;;;;0.53;0.53;;;;;;;10.43;100.00;95443.03;5110815;28;20574;-56
2023/10/31 02:17:27;;;;;;;1.93;0.87;;;;;;;10.41;100.00;95450.31;5110076;28;20220;-57
2023/10/31 02:19:54;;;;;;;1.17;0.90;;;;;;;10.47;100.00;95448.78;5110497;28;20213;-55
2023/10/31 02:22:22;;;;;;;0.73;0.73;;;;;;;10.51;100.00;95452.75;5111063;28;20201;-58
2023/10/31 02:24:48;;;;;;;0.80;0.50;;;;;;;10.53;100.00;95453.38;5110707;28;20208;-56
2023/10/31 02:27:14;;;;;;;1.03;0.73;;;;;;;10.61;100.00;95466.56;5110873;28;20653;-56
2023/10/31 02:29:41;;;;;;;0.77;0.77;;;;;;;10.69;100.00;95469.19;5109840;28;20205;-56
2023/10/31 02:32:08;;;;;;;1.00;0.67;;;;;;;10.62;100.00;95476.16;5110781;28;20547;-55
2023/10/31 02:34:34;;;;;;;0.53;0.53;;;;;;;10.63;100.00;95482.28;5110667;28;20229;-56
2023/10/31 02:37:01;;;;;;;0.70;0.40;;;;;;;10.65;100.00;95482.91;5111471;28;20208;-56
2023/10/31 02:39:29;;;;;;;0.57;0.57;;;;;;;10.66;100.00;95490.69;5111733;28;20218;-56
2023/10/31 02:41:56;;;;;;;1.67;0.63;;;;;;;10.68;100.00;95491.31;5114858;28;20193;-55
2023/10/31 02:44:22;;;;;;;2.40;0.80;;;;;;;10.67;100.00;95491.50;5116687;28;20249;-55
2023/10/31 02:46:48;;;;;;;0.70;0.70;;;;;;;10.68;100.00;95493.97;5116525;28;20237;-56
2023/10/31 02:49:16;;;;;;;0.67;0.60;;;;;;;10.69;100.00;95485.06;5117985;28;20209;-56
2023/10/31 02:51:45;;;;;;;0.63;0.63;;;;;;;10.69;100.00;95494.81;5114612;28;20250;-55
2023/10/31 02:54:14;;;;;;;0.80;0.50;;;;;;;10.64;100.00;95484.72;5114617;28;20673;-56
2023/10/31 02:56:42;;;;;;;2.97;1.00;;;;;;;10.61;100.00;95493.00;5115589;28;20209;-56
2023/10/31 02:59:08;;;;;;;1.07;0.63;;;;;;;10.58;100.00;95493.34;5113644;28;20197;-57
2023/10/31 03:01:36;;;;;;;0.50;0.50;;;;;;;10.55;100.00;95487.59;5114154;28;20226;-56
2023/10/31 03:04:03;;;;;;;4.00;1.10;;;;;;;10.55;100.00;95496.34;5114253;28;20193;-56
2023/10/31 03:06:32;;;;;;;1.50;0.67;;;;;;;10.53;100.00;95490.38;5114387;28;20702;-57
2023/10/31 03:08:59;;;;;;;0.97;0.73;;;;;;;10.54;100.00;95492.03;5114396;28;20299;-57
2023/10/31 03:11:27;;;;;;;1.27;0.77;;;;;;;10.55;100.00;95499.00;5114054;28;21374;-55
2023/10/31 03:13:56;;;;;;;1.27;0.40;;;;;;;10.62;100.00;95505.25;5112971;28;20633;-56
2023/10/31 03:16:23;;;;;;;0.50;0.43;;;;;;;10.66;100.00;95506.56;5113562;28;20213;-56
2023/10/31 03:18:50;;;;;;;1.40;0.60;;;;;;;10.57;100.00;95507.56;5113527;28;20522;-56
2023/10/31 03:21:18;;;;;;;0.47;0.47;;;;;;;10.61;100.00;95514.16;5095978;28;20200;-56
2023/10/31 03:23:49;;;;;;;0.60;0.60;;;;;;;10.56;100.00;95527.06;5114849;28;20212;-57
2023/10/31 03:26:16;;;;;;;1.53;0.60;;;;;;;10.60;100.00;95522.25;5114922;28;20246;-56
2023/10/31 03:28:46;;;;;;;0.57;0.57;;;;;;;10.59;100.00;95532.03;5113824;28;20201;-56
2023/10/31 03:31:15;;;;;;;1.17;0.50;;;;;;;10.54;100.00;95525.56;5114303;28;20254;-55
2023/10/31 03:33:43;;;;;;;0.93;0.60;;;;;;;10.53;100.00;95532.69;5118095;28;20210;-56
2023/10/31 03:36:12;;;;;;;1.83;0.63;;;;;;;10.58;100.00;95535.66;5134339;28;20201;-55
2023/10/31 03:38:39;;;;;;;1.43;0.40;;;;;;;10.56;100.00;95537.63;5136230;28;20193;-54
2023/10/31 03:41:08;;;;;;;0.60;0.43;;;;;;;10.52;100.00;95546.91;5127899;28;20203;-55
2023/10/31 03:43:37;;;;;;;2.33;0.43;;;;;;;10.59;100.00;95552.34;5115059;28;20198;-56
2023/10/31 03:46:04;;;;;;;0.60;0.60;;;;;;;10.62;100.00;95554.63;5113971;28;20229;-57
2023/10/31 03:48:32;;;;;;;1.07;0.40;;;;;;;10.60;100.00;95573.31;5114895;28;20212;-57
2023/10/31 03:50:58;;;;;;;1.53;0.77;;;;;;;10.63;100.00;95566.88;5114470;28;20201;-57
2023/10/31 03:53:25;;;;;;;0.60;0.60;;;;;;;10.62;100.00;95568.69;5113765;28;20204;-56
2023/10/31 03:55:51;;;;;;;0.70;0.47;;;;;;;10.64;100.00;95576.44;5114086;28;20205;-56
2023/10/31 03:58:18;;;;;;;1.43;0.80;;;;;;;10.59;100.00;95561.09;5114317;28;20209;-55
2023/10/31 04:00:45;;;;;;;0.70;0.50;;;;;;;10.54;100.00;95566.06;5113760;28;20201;-55
2023/10/31 04:03:11;;;;;;;1.53;0.70;;;;;;;10.54;100.00;95560.78;5113708;28;20511;-56
2023/10/31 04:05:39;;;;;;;1.37;0.70;;;;;;;10.51;100.00;95558.47;5114382;28;20201;-56
2023/10/31 04:08:07;;;;;;;2.23;0.47;;;;;;;10.53;100.00;95559.13;5113767;28;20205;-56
2023/10/31 04:10:34;;;;;;;1.03;0.47;;;;;;;10.43;100.00;95558.47;5113782;28;20201;-57
2023/10/31 04:13:01;;;;;;;0.57;0.50;;;;;;;10.44;100.00;95568.06;5114691;28;20201;-57
2023/10/31 04:15:27;;;;;;;2.23;0.90;;;;;;;10.43;100.00;95563.75;5112993;28;20228;-56
2023/10/31 04:17:55;;;;;;;0.97;0.40;;;;;;;10.44;100.00;95581.28;5113368;28;20202;-54
2023/10/31 04:20:21;;;;;;;2.20;0.50;;;;;;;10.37;100.00;95572.38;5113308;28;20204;-56
2023/10/31 04:22:51;;;;;;;1.90;0.50;;;;;;;10.31;100.00;95578.31;5113372;28;20604;-56
2023/10/31 04:25:18;;;;;;;1.30;0.50;;;;;;;10.32;100.00;95572.88;5114104;28;20197;-56
2023/10/31 04:27:45;;;;;;;3.97;1.00;;;;;;;10.27;100.00;95577.00;5113101;28;20204;-56
2023/10/31 04:30:12;;;;;;;1.00;0.60;;;;;;;10.23;100.00;95575.69;5113613;28;20201;-56
2023/10/31 04:32:39;;;;;;;2.40;0.83;;;;;;;10.22;100.00;95581.97;5113020;28;20213;-55
2023/10/31 04:35:06;;;;;;;0.47;0.47;;;;;;;10.22;100.00;95576.69;5113678;28;20223;-55
2023/10/31 04:37:32;;;;;;;1.23;0.70;;;;;;;10.21;100.00;95581.13;5113557;28;20201;-56
2023/10/31 04:40:00;;;;;;;1.27;0.60;;;;;;;10.23;100.00;95578.34;5113381;28;20551;-56
2023/10/31 04:42:30;;;;;;;0.67;0.60;;;;;;;10.18;100.00;95575.34;5113209;28;20506;-56
2023/10/31 04:44:57;;;;;;;2.53;0.63;;;;;;;10.16;100.00;95575.53;5094275;28;20307;-56
2023/10/31 04:47:23;;;;;;;0.63;0.63;;;;;;;10.19;100.00;95571.72;5112967;28;20197;-55
2023/10/31 04:49:50;;;;;;;0.67;0.67;;;;;;;10.32;100.00;95577.31;5113501;28;20197;-55
2023/10/31 04:52:19;;;;;;;2.67;0.90;;;;;;;10.31;100.00;95580.94;5113426;28;20521;-55
2023/10/31 04:54:47;;;;;;;3.17;0.80;;;;;;;10.28;100.00;95570.72;5112395;28;20277;-56
2023/10/31 04:57:15;;;;;;;0.60;0.37;;;;;;;10.33;100.00;95579.81;5094634;28;20208;-57
2023/10/31 04:59:42;;;;;;;2.10;0.60;;;;;;;10.33;100.00;95571.06;5112936;28;20201;-56
2023/10/31 05:02:09;;;;;;;0.63;0.50;;;;;;;10.32;100.00;95575.50;5112308;28;20205;-55
2023/10/31 05:04:39;;;;;;;0.60;0.60;;;;;;;10.28;100.00;95579.47;5110899;28;20193;-55
2023/10/31 05:07:08;;;;;;;0.83;0.77;;;;;;;10.29;100.00;95575.03;5113010;28;20213;-56
2023/10/31 05:09:35;;;;;;;1.37;0.50;;;;;;;10.32;100.00;95577.31;5112602;28;20197;-56
2023/10/31 05:12:02;;;;;;;2.43;0.77;;;;;;;10.30;100.00;95574.03;5111599;28;20197;-55
2023/10/31 05:14:30;;;;;;;0.77;0.50;;;;;;;10.30;100.00;95579.31;5112547;28;20217;-57
2023/10/31 05:16:59;;;;;;;4.13;1.13;;;;;;;10.27;100.00;95577.00;5111137;28;20208;-55
2023/10/31 05:19:26;;;;;;;1.90;0.70;;;;;;;10.28;100.00;95573.34;5112755;28;20237;-56
2023/10/31 05:21:52;;;;;;;3.57;0.87;;;;;;;10.31;100.00;95578.31;5112569;28;20698;-56
2023/10/31 05:24:19;;;;;;;0.67;0.50;;;;;;;10.29;100.00;95577.66;5112957;28;21454;-57
2023/10/31 05:26:46;;;;;;;3.87;1.00;;;;;;;10.26;100.00;95578.84;5112499;28;20205;-56
2023/10/31 05:29:14;;;;;;;1.87;0.93;;;;;;;10.23;100.00;95586.25;5112627;28;20220;-56
2023/10/31 05:31:43;;;;;;;0.70;0.67;;;;;;;10.25;100.00;95586.91;5111938;28;20220;-57
2023/10/31 05:34:10;;;;;;;1.77;0.80;;;;;;;10.22;100.00;95589.88;5111126;28;20716;-55
2023/10/31 05:36:38;;;;;;;3.67;1.10;;;;;;;10.24;100.00;95580.78;5113039;28;20220;-56
2023/10/31 05:39:05;;;;;;;2.10;0.50;;;;;;;10.22;100.00;95592.53;5112646;28;20649;-56
2023/10/31 05:41:35;;;;;;;1.27;0.80;;;;;;;10.31;100.00;95586.22;5113255;28;20657;-56
2023/10/31 05:44:02;;;;;;;1.33;0.60;;;;;;;10.30;100.00;95589.88;5104253;28;20197;-56
2023/10/31 05:46:29;;;;;;;1.60;0.80;;;;;;;10.28;100.00;95586.56;5133287;28;20235;-57
2023/10/31 05:48:57;;;;;;;0.80;0.80;;;;;;;10.29;100.00;95589.06;5130023;28;20199;-56
2023/10/31 05:51:25;;;;;;;3.13;0.73;;;;;;;10.29;100.00;95601.44;5133632;28;20227;-55
2023/10/31 05:53:52;;;;;;;1.07;0.87;;;;;;;10.31;100.00;95597.63;5134300;28;20197;-55
2023/10/31 05:56:18;;;;;;;1.20;0.77;;;;;;;10.30;100.00;95603.94;5130533;28;20221;-56
2023/10/31 05:58:45;;;;;;;1.33;0.77;;;;;;;10.34;100.00;95599.13;5130247;28;20207;-55
2023/10/31 06:01:11;;;;;;;2.27;0.60;;;;;;;10.33;100.00;95605.41;5132547;28;20216;-54
2023/10/31 06:03:38;;;;;;;1.87;0.73;;;;;;;10.35;100.00;95608.69;5123889;28;20229;-59
2023/10/31 06:06:10;;;;;;;1.87;0.70;;;;;;;10.31;100.00;95620.59;5111866;28;20212;-56
2023/10/31 06:08:36;;;;;;;2.17;0.80;;;;;;;10.33;100.00;95619.44;5110493;28;20193;-55
2023/10/31 06:11:05;;;;;;;1.17;0.70;;;;;;;10.51;100.00;95624.56;5111058;28;20193;-55
2023/10/31 06:13:34;;;;;;;1.00;0.90;;;;;;;10.47;100.00;95633.81;5111111;28;20200;-55
2023/10/31 06:16:01;;;;;;;1.90;0.80;;;;;;;10.49;100.00;95631.81;5110665;28;20228;-56
2023/10/31 06:18:28;;;;;;;1.63;0.87;;;;;;;10.50;100.00;95622.88;5110978;28;20208;-58
2023/10/31 06:20:54;;;;;;;1.10;0.60;;;;;;;10.54;100.00;95633.94;5111416;28;20216;-57
2023/10/31 06:23:22;;;;;;;1.03;0.80;;;;;;;10.55;100.00;95636.44;5113262;28;20201;-56
2023/10/31 06:25:48;;;;;;;0.77;0.67;;;;;;;10.49;100.00;95640.56;5115499;28;20201;-59
2023/10/31 06:28:15;;;;;;;3.43;0.83;;;;;;;10.46;100.00;95638.25;5113831;28;20216;-58
2023/10/31 06:30:42;;;;;;;1.97;1.03;;;;;;;10.45;100.00;95651.66;5114872;28;20220;-58
2023/10/31 06:33:10;;;;;;;1.07;0.80;;;;;;;10.47;100.00;95647.84;5114853;28;20206;-57
2023/10/31 06:35:37;;;;;;;1.47;1.00;;;;;;;10.40;100.00;95653.97;5115912;28;20217;-57
2023/10/31 06:38:04;;;;;;;1.87;0.97;;;;;;;10.38;100.00;95650.66;5116647;28;20212;-58
2023/10/31 06:40:32;;;;;;;3.50;1.20;;;;;;;10.36;100.00;95657.91;5121212;28;20205;-57
2023/10/31 06:43:00;;;;;;;2.50;1.00;;;;;;;10.35;100.00;95657.09;5126045;28;20208;-58
2023/10/31 06:45:26;;;;;;;2.90;1.30;;;;;;;10.31;100.00;95660.22;5126253;28;20217;-58
2023/10/31 06:47:53;;;;;;;2.97;1.10;;;;;;;10.29;100.00;95667.50;5126858;28;20217;-58
2023/10/31 06:50:21;;;;;;;1.60;0.70;;;;;;;10.24;100.00;95669.78;5126720;28;20201;-58
2023/10/31 06:52:47;;;;;;;3.23;1.00;;;;;;;10.29;100.00;95670.13;5130816;28;20630;-57
2023/10/31 06:55:15;;;;;;;1.17;0.80;;;;;;;10.25;100.00;95669.66;5132529;28;20220;-58
2023/10/31 06:57:43;;;;;;;2.20;0.73;;;;;;;10.27;100.00;95672.94;5130218;28;20205;-58
2023/10/31 07:00:12;;;;;;;2.43;0.90;;;;;;;10.28;100.00;95676.41;5122180;28;20208;-58
2023/10/31 07:02:39;;;;;;;2.47;0.93;;;;;;;10.27;100.00;95680.06;5116151;28;20212;-63
2023/10/31 07:05:07;;;;;;;1.37;1.00;;;;;;;10.26;100.00;95683.69;5114481;28;20650;-57
2023/10/31 07:07:34;;;;;;;1.80;0.70;;;;;;;10.30;100.00;95688.50;5114547;28;20231;-57
2023/10/31 07:10:00;;;;;;;3.23;1.30;;;;;;;10.27;100.00;95690.63;5115054;28;20526;-57
2023/10/31 07:12:26;;;;;;;2.27;0.80;;;;;;;10.32;100.00;95701.50;5113579;28;20556;-57
2023/10/31 07:14:58;;;;;;;1.93;1.30;;;;;;;10.32;100.00;95693.59;5113547;28;20225;-58
2023/10/31 07:17:24;;;;;;;2.23;1.13;;;;;;;10.35;100.00;95696.72;5115016;28;20197;-57
2023/10/31 07:19:51;;;;;;;1.33;1.10;;;;;;;10.36;100.00;95694.91;5114386;28;20201;-58
2023/10/31 07:22:18;;;;;;;1.60;1.37;;;;;;;10.45;100.00;95699.22;5114466;28;20193;-58
2023/10/31 07:24:45;;;;;;;1.87;0.90;;;;;;;10.38;100.00;95698.25;5113743;28;20212;-57
2023/10/31 07:27:12;;;;;;;1.17;1.07;;;;;;;10.41;100.00;95698.72;5095891;28;20601;-58
2023/10/31 07:29:40;;;;;;;1.17;1.07;;;;;;;10.45;100.00;95707.16;5113704;28;20201;-58
2023/10/31 07:32:08;;;;;;;1.83;1.17;;;;;;;10.43;100.00;95703.84;5114059;28;20197;-58
2023/10/31 07:34:35;;;;;;;1.37;0.90;;;;;;;10.41;100.00;95697.91;5095064;28;20197;-58
2023/10/31 07:37:03;;;;;;;4.73;1.50;;;;;;;10.51;100.00;95703.00;5114131;28;20262;-58
2023/10/31 07:39:30;;;;;;;2.10;0.90;;;;;;;10.53;100.00;95701.03;5114296;28;20237;-57
2023/10/31 07:41:57;;;;;;;4.97;1.27;;;;;;;10.55;100.00;95709.63;5114489;28;20209;-57
2023/10/31 07:44:23;;;;;;;2.90;0.90;;;;;;;10.54;100.00;95706.16;5113547;28;20233;-58
2023/10/31 07:46:49;;;;;;;1.57;0.90;;;;;;;10.59;100.00;95713.59;5113088;28;20221;-58
2023/10/31 07:49:18;;;;;;;1.80;1.20;;;;;;;10.70;100.00;95713.25;5113347;28;20201;-58
2023/10/31 07:51:47;;;;;;;2.17;0.80;;;;;;;10.64;100.00;95713.91;5113338;28;20209;-58
2023/10/31 07:54:14;;;;;;;2.83;1.07;;;;;;;10.60;100.00;95717.88;5112959;28;20635;-58
2023/10/31 07:56:40;;;;;;;2.53;0.90;;;;;;;10.59;100.00;95713.59;5112706;28;20634;-58
2023/10/31 07:59:07;;;;;;;1.93;1.07;;;;;;;10.63;100.00;95718.38;5112743;28;20209;-58
2023/10/31 08:01:34;;;;;;;2.37;0.97;;;;;;;10.64;100.00;95719.19;5113671;28;20267;-58
2023/10/31 08:04:00;;;;;;;2.13;1.00;;;;;;;10.62;100.00;95727.31;5113142;28;20200;-59
2023/10/31 08:06:28;;;;;;;2.00;0.83;;;;;;;10.71;100.00;95715.72;5113693;28;20189;-58
2023/10/31 08:08:57;;;;;;;1.50;0.90;;;;;;;10.66;100.00;95723.34;5112881;28;20322;-58
2023/10/31 08:11:23;;;;;;;2.63;0.97;;;;;;;10.76;100.00;95717.88;5112751;28;20655;-57
2023/10/31 08:13:50;;;;;;;1.90;0.77;;;;;;;10.82;100.00;95728.63;5113062;28;20205;-58
2023/10/31 08:16:18;;;;;;;2.70;0.80;;;;;;;10.87;100.00;95721.03;5113126;28;20249;-57
2023/10/31 08:18:46;;;;;;;3.13;0.97;;;;;;;10.90;100.00;95730.44;5112553;28;20209;-57
2023/10/31 08:21:16;;;;;;;1.87;0.90;;;;;;;10.84;100.00;95734.53;5117245;28;20193;-58
2023/10/31 08:23:46;;;;;;;2.40;1.10;;;;;;;10.87;100.00;95731.59;5129619;28;20253;-56
2023/10/31 08:26:15;;;;;;;1.70;0.80;;;;;;;10.89;100.00;95742.00;5131227;28;20189;-58
2023/10/31 08:28:43;;;;;;;1.60;0.80;;;;;;;10.84;100.00;95742.47;5132262;28;20259;-57
2023/10/31 08:31:09;;;;;;;3.07;1.03;;;;;;;10.88;100.00;95745.63;5133509;28;20197;-57
2023/10/31 08:33:36;;;;;;;1.83;1.17;;;;;;;10.93;100.00;95741.50;5131192;28;20200;-57
2023/10/31 08:36:03;;;;;;;1.97;1.00;;;;;;;10.96;100.00;95745.63;5118118;28;20225;-61
2023/10/31 08:38:30;;;;;;;0.80;0.80;;;;;;;11.01;100.00;95738.03;5112947;28;20250;-58
2023/10/31 08:40:59;;;;;;;2.90;1.00;;;;;;;11.02;100.00;95746.78;5113616;28;20201;-57
2023/10/31 08:43:26;;;;;;;2.37;0.90;;;;;;;11.13;100.00;95757.00;5111890;28;20197;-58
2023/10/31 08:45:52;;;;;;;2.03;1.20;;;;;;;11.14;100.00;95748.06;5111188;28;20229;-56
2023/10/31 08:48:18;;;;;;;2.10;0.80;;;;;;;11.18;100.00;95757.34;5112288;28;20205;-56
2023/10/31 08:50:45;;;;;;;2.10;1.17;;;;;;;11.27;100.00;95754.50;5111344;28;20216;-58
2023/10/31 08:53:12;;;;;;;4.13;0.80;;;;;;;11.35;100.00;95748.34;5112131;28;20287;-56
2023/10/31 08:55:38;;;;;;;2.27;1.20;;;;;;;11.31;100.00;95754.97;5112142;28;20263;-56
2023/10/31 08:58:06;;;;;;;1.53;0.73;;;;;;;11.39;100.00;95757.63;5112229;28;20197;-57
2023/10/31 09:00:33;;;;;;;1.50;0.77;;;;;;;11.38;100.00;95758.59;5112210;28;20231;-58
2023/10/31 09:03:01;;;;;;;1.63;0.90;;;;;;;11.45;100.00;95763.06;5112305;28;20201;-57
2023/10/31 09:05:28;;;;;;;2.10;1.00;;;;;;;11.53;100.00;95770.16;5111814;28;20197;-56
2023/10/31 09:07:54;;;;;;;1.93;1.00;;;;;;;11.53;100.00;95764.84;5112412;28;20201;-56
2023/10/31 09:10:23;;;;;;;1.53;0.70;;;;;;;11.51;100.00;95755.44;5111861;28;20197;-57
2023/10/31 09:12:50;;;;;;;1.10;1.00;;;;;;;11.59;100.00;95753.56;5112358;28;20211;-58
2023/10/31 09:15:18;;;;;;;4.60;1.07;;;;;;;11.67;100.00;95761.50;5110923;28;21065;-58
2023/10/31 09:17:45;;;;;;;1.23;0.90;;;;;;;11.71;100.00;95756.72;5110759;28;20245;-57
2023/10/31 09:20:12;;;;;;;2.67;1.00;;;;;;;11.78;100.00;95762.97;5112049;28;20220;-57
2023/10/31 09:22:41;;;;;;;3.60;0.90;;;;;;;11.80;100.00;95763.63;5112080;28;20197;-57
2023/10/31 09:25:10;;;;;;;3.50;1.03;;;;;;;11.84;100.00;95757.81;5111350;28;20205;-57
2023/10/31 09:27:38;;;;;;;2.07;1.20;;;;;;;11.83;100.00;95750.84;5111921;28;20209;-58
2023/10/31 09:30:06;;;;;;;4.53;0.97;;;;;;;12.00;100.00;95751.63;5110008;28;20216;-58
2023/10/31 09:32:33;;;;;;;1.80;0.70;;;;;;;11.91;100.00;95747.34;5109970;28;20221;-58
2023/10/31 09:35:00;;;;;;;1.70;0.93;;;;;;;12.12;100.00;95749.41;5111574;28;20209;-57
2023/10/31 09:37:27;;;;;;;4.50;1.03;;;;;;;12.12;100.00;95750.22;5110772;28;20217;-56
2023/10/31 09:39:53;;;;;;;2.20;0.77;;;;;;;12.16;100.00;95734.78;5111550;28;20205;-57
2023/10/31 09:42:20;;;;;;;1.60;0.70;;;;;;;12.20;100.00;95746.69;5112055;28;20213;-57
2023/10/31 09:44:46;;;;;;;1.77;0.70;;;;;;;12.21;100.00;95745.72;5111055;28;21267;-57
2023/10/31 09:47:13;;;;;;;1.53;0.90;;;;;;;12.33;100.00;95749.59;5105533;28;20233;-58
2023/10/31 09:49:41;;;;;;;1.53;0.73;;;;;;;12.40;100.00;95754.03;5110352;28;20321;-57
2023/10/31 09:52:08;;;;;;;2.00;0.80;;;;;;;12.39;100.00;95751.56;5111101;28;20630;-57
2023/10/31 09:54:35;;;;;;;2.87;1.33;;;;;;;12.41;100.00;95745.06;5110563;28;20739;-57
2023/10/31 09:57:02;;;;;;;2.00;1.00;;;;;;;12.42;100.00;95751.22;5111537;28;20260;-57
2023/10/31 09:59:29;;;;;;;2.10;1.23;;;;;;;12.46;100.00;95748.03;5117366;28;20239;-57
2023/10/31 10:01:56;;;;;;;1.63;1.03;;;;;;;12.55;100.00;95751.44;5118260;28;20219;-56
2023/10/31 10:04:23;;;;;;;2.93;1.00;;;;;;;12.66;100.00;95745.72;5117396;28;20385;-57
2023/10/31 10:06:52;;;;;;;3.70;1.03;;;;;;;12.86;100.00;95746.06;5118485;28;20224;-57
2023/10/31 10:09:19;;;;;;;1.47;0.87;;;;;;;13.08;100.00;95742.53;5118350;28;20205;-57
2023/10/31 10:11:45;;;;;;;2.07;0.77;;;;;;;13.06;100.00;95735.78;5117703;28;20624;-57
2023/10/31 10:14:14;;;;;;;2.67;1.23;;;;;;;13.06;100.00;95741.91;5117667;28;20208;-57
2023/10/31 10:16:40;;;;;;;2.10;0.90;;;;;;;13.12;100.00;95738.56;5118037;28;20229;-56
2023/10/31 10:19:24;;;;;;;1.07;0.90;;;;;;;13.17;100.00;95735.38;5118570;28;20231;-57
2023/10/31 10:21:53;;;;;;;2.93;0.63;;;;;;;13.11;100.00;95736.91;5118074;28;20200;-57
2023/10/31 10:24:23;;;;;;;2.13;0.80;;;;;;;13.21;100.00;95741.97;5118599;28;20201;-57
2023/10/31 10:26:50;;;;;;;2.43;0.80;;;;;;;13.22;100.00;95743.59;5117951;28;20612;-56
2023/10/31 10:29:17;;;;;;;0.80;0.70;;;;;;;13.25;100.00;95749.38;5117211;28;20197;-56
2023/10/31 10:31:46;;;;;;;2.13;0.93;;;;;;;13.37;100.00;95747.09;5117782;28;20220;-57
2023/10/31 10:34:15;;;;;;;2.57;1.03;;;;;;;13.38;100.00;95743.44;5118219;28;20212;-57
2023/10/31 10:36:42;;;;;;;2.37;0.90;;;;;;;13.43;100.00;95752.50;5117957;28;20228;-57
2023/10/31 10:39:11;;;;;;;1.83;0.57;;;;;;;13.56;100.00;95753.72;5117248;28;20740;-56
2023/10/31 10:41:39;;;;;;;3.10;1.43;;;;;;;13.52;100.00;95761.22;5117798;28;20197;-57
2023/10/31 10:44:13;;;;;;;1.53;0.77;;;;;;;13.43;100.00;95757.00;5117946;28;20201;-57
2023/10/31 10:46:41;;;;;;;1.07;0.80;;;;;;;13.31;100.00;95761.13;5135205;28;20229;-57
2023/10/31 10:49:08;;;;;;;1.53;0.70;;;;;;;13.05;100.00;95752.69;5138563;28;20193;-57
2023/10/31 10:51:43;;;;;;;3.13;0.93;;;;;;;13.04;100.00;95767.00;5134015;28;20200;-57
2023/10/31 10:54:16;;;;;;;3.20;1.07;;;;;;;13.00;100.00;95760.38;5119177;28;20220;-57
2023/10/31 10:56:46;;;;;;;1.10;0.70;;;;;;;13.03;100.00;95752.06;5118628;28;20213;-56
2023/10/31 10:59:16;;;;;;;1.23;0.60;;;;;;;13.01;100.00;95767.31;5117603;28;20204;-56
2023/10/31 11:01:44;;;;;;;0.90;0.80;;;;;;;12.95;100.00;95764.41;5118407;28;20200;-61
2023/10/31 11:04:12;;;;;;;1.73;0.80;;;;;;;12.97;100.00;95767.69;5118731;28;20644;-58
2023/10/31 11:06:39;;;;;;;1.73;0.47;;;;;;;13.05;100.00;95760.66;5118174;28;20219;-58
2023/10/31 11:09:07;;;;;;;0.80;0.60;;;;;;;13.03;100.00;95771.47;5117073;28;20205;-59
2023/10/31 11:11:35;;;;;;;1.37;0.50;;;;;;;13.01;100.00;95770.81;5114760;28;20243;-58
2023/10/31 11:14:02;;;;;;;1.37;0.57;;;;;;;12.81;100.00;95772.31;5114779;28;20294;-58
2023/10/31 11:16:35;;;;;;;0.40;0.40;;;;;;;12.97;100.00;95773.00;5115506;28;20550;-58
2023/10/31 11:19:04;;;;;;;1.23;0.97;;;;;;;12.98;100.00;95769.34;5115721;28;20212;-58
2023/10/31 11:21:32;;;;;;;2.67;1.03;;;;;;;12.95;100.00;95772.34;5115651;28;20209;-58
2023/10/31 11:24:00;;;;;;;2.53;0.80;;;;;;;12.94;100.00;95772.53;5115112;28;20284;-59